createdAt,value
2022-11-16T00:00:10.735Z,84.72
2022-11-16T00:02:40.436Z,82.63
2022-11-16T00:05:09.452Z,81.95
2022-11-16T00:07:37.777Z,81.28
2022-11-16T00:10:06.818Z,80.94
2022-11-16T00:12:35.037Z,79.62
2022-11-16T00:15:03.310Z,79.40
2022-11-16T00:17:31.599Z,80.30
2022-11-16T00:20:01.333Z,84.22
2022-11-16T00:22:29.625Z,90.86
2022-11-16T00:24:57.887Z,96.84
2022-11-16T00:27:26.184Z,98.91
2022-11-16T00:29:54.494Z,94.94
2022-11-16T00:32:23.683Z,89.47
2022-11-16T00:34:51.896Z,87.36
2022-11-16T00:37:21.637Z,88.10
2022-11-16T00:39:49.855Z,87.22
2022-11-16T00:42:18.080Z,87.10
2022-11-16T00:44:46.322Z,86.47
2022-11-16T00:47:14.585Z,85.65
2022-11-16T00:49:42.767Z,84.13
2022-11-16T00:52:10.952Z,83.98
2022-11-16T00:54:40.672Z,84.55
2022-11-16T00:57:08.995Z,88.36
2022-11-16T00:59:37.191Z,91.04
2022-11-16T01:02:05.417Z,90.53
2022-11-16T01:04:33.649Z,92.85
2022-11-16T01:07:01.923Z,91.65
2022-11-16T01:09:30.210Z,93.77
2022-11-16T01:12:12.845Z,91.56
2022-11-16T01:14:44.545Z,90.04
2022-11-16T01:17:13.158Z,88.83
2022-11-16T01:19:42.117Z,85.62
2022-11-16T01:22:10.385Z,89.32
2022-11-16T01:24:38.622Z,88.12
2022-11-16T01:27:08.234Z,88.02
2022-11-16T01:29:36.476Z,88.34
2022-11-16T01:32:04.743Z,87.87
2022-11-16T01:34:34.112Z,87.38
2022-11-16T01:37:02.361Z,87.99
2022-11-16T01:39:30.567Z,88.46
2022-11-16T01:41:58.883Z,86.51
2022-11-16T01:45:09.514Z,83.93
2022-11-16T01:47:39.235Z,87.14
2022-11-16T01:50:11.556Z,85.87
2022-11-16T01:52:46.411Z,85.92
2022-11-16T01:55:14.890Z,84.57
2022-11-16T01:57:45.517Z,84.98
2022-11-16T02:00:15.692Z,85.35
2022-11-16T02:02:45.793Z,84.36
2022-11-16T02:05:17.785Z,84.03
2022-11-16T02:08:25.546Z,84.01
2022-11-16T02:11:11.887Z,86.42
2022-11-16T02:13:52.593Z,88.25
2022-11-16T02:16:33.378Z,90.79
2022-11-16T02:19:28.316Z,88.19
2022-11-16T02:22:07.275Z,87.34
2022-11-16T02:24:45.952Z,88.74
2022-11-16T02:27:49.566Z,92.20
2022-11-16T02:30:21.173Z,98.42
2022-11-16T02:32:54.948Z,97.26
2022-11-16T02:35:27.790Z,90.90
2022-11-16T02:38:00.409Z,90.98
2022-11-16T02:40:33.034Z,95.75
2022-11-16T02:43:06.428Z,95.04
2022-11-16T02:45:41.355Z,93.91
2022-11-16T02:48:14.467Z,88.50
2022-11-16T02:50:44.571Z,85.41
2022-11-16T02:53:12.866Z,83.29
2022-11-16T02:55:41.688Z,82.30
2022-11-16T02:58:12.382Z,83.07
2022-11-16T03:00:48.232Z,82.74
2022-11-16T03:03:28.292Z,83.32
2022-11-16T03:06:03.161Z,84.49
2022-11-16T03:08:34.057Z,86.06
2022-11-16T03:11:23.156Z,87.07
2022-11-16T03:13:52.423Z,85.35
2022-11-16T03:16:27.320Z,85.09
2022-11-16T03:18:58.664Z,83.62
2022-11-16T03:21:34.430Z,83.69
2022-11-16T03:24:03.279Z,83.58
2022-11-16T03:26:39.732Z,88.39
2022-11-16T03:29:15.581Z,86.60
2022-11-16T03:31:50.173Z,85.17
2022-11-16T03:34:23.606Z,85.05
2022-11-16T03:36:54.341Z,84.08
2022-11-16T03:39:26.956Z,85.44
2022-11-16T03:41:57.675Z,85.48
2022-11-16T03:44:26.944Z,85.55
2022-11-16T03:46:56.826Z,90.73
2022-11-16T03:49:25.278Z,98.49
2022-11-16T03:51:53.758Z,100.00
2022-11-16T03:54:22.224Z,100.00
2022-11-16T03:56:50.497Z,100.00
2022-11-16T03:59:18.727Z,100.00
2022-11-16T04:01:46.927Z,100.00
2022-11-16T04:04:30.415Z,94.20
2022-11-16T04:07:16.107Z,91.58
2022-11-16T04:10:01.543Z,90.00
2022-11-16T04:12:47.095Z,88.28
2022-11-16T04:15:31.771Z,90.02
2022-11-16T04:18:17.134Z,87.19
2022-11-16T04:21:04.159Z,89.66
2022-11-16T04:23:50.000Z,89.58
2022-11-16T04:26:18.461Z,89.28
2022-11-16T04:28:45.818Z,89.70
2022-11-16T04:31:31.730Z,92.02
2022-11-16T04:34:17.220Z,91.83
2022-11-16T04:37:04.234Z,89.95
2022-11-16T04:39:32.457Z,88.70
2022-11-16T04:42:16.029Z,88.55
2022-11-16T04:45:01.895Z,88.88
2022-11-16T04:47:30.194Z,91.63
2022-11-16T04:49:58.411Z,90.56
2022-11-16T04:52:28.001Z,90.44
2022-11-16T04:54:56.265Z,91.12
2022-11-16T04:57:24.581Z,94.34
2022-11-16T04:59:52.768Z,97.70
2022-11-16T05:02:21.175Z,99.62
2022-11-16T05:04:49.450Z,94.94
2022-11-16T05:07:17.717Z,93.48
2022-11-16T05:09:48.834Z,92.53
2022-11-16T05:12:20.761Z,91.95
2022-11-16T05:14:49.025Z,93.03
2022-11-16T05:17:18.176Z,94.97
2022-11-16T05:20:03.887Z,95.65
2022-11-16T05:22:32.181Z,93.51
2022-11-16T05:25:01.894Z,94.37
2022-11-16T05:27:31.216Z,92.88
2022-11-16T05:29:59.770Z,91.83
2022-11-16T05:32:29.414Z,90.30
2022-11-16T05:34:57.611Z,90.65
2022-11-16T05:37:27.004Z,90.37
2022-11-16T05:39:57.158Z,90.85
2022-11-16T05:42:26.840Z,90.42
2022-11-16T05:44:55.085Z,88.83
2022-11-16T05:47:23.337Z,86.91
2022-11-16T05:49:51.647Z,87.77
2022-11-16T05:52:19.898Z,89.78
2022-11-16T05:54:48.109Z,91.70
2022-11-16T05:57:17.571Z,91.07
2022-11-16T05:59:47.260Z,91.22
2022-11-16T06:02:15.480Z,90.11
2022-11-16T06:04:43.737Z,87.74
2022-11-16T06:07:12.075Z,86.93
2022-11-16T06:09:40.350Z,90.47
2022-11-16T06:12:09.401Z,91.17
2022-11-16T06:14:37.744Z,88.50
2022-11-16T06:17:07.399Z,87.67
2022-11-16T06:19:36.712Z,88.17
2022-11-16T06:22:04.927Z,86.65
2022-11-16T06:24:33.161Z,86.65
2022-11-16T06:27:01.563Z,86.96
2022-11-16T06:29:29.788Z,84.48
2022-11-16T06:31:58.072Z,83.67
2022-11-16T06:34:27.698Z,85.82
2022-11-16T06:36:55.942Z,83.10
2022-11-16T06:39:24.236Z,81.99
2022-11-16T06:41:52.453Z,83.96
2022-11-16T06:44:20.648Z,85.11
2022-11-16T06:46:48.808Z,85.89
2022-11-16T06:49:17.086Z,85.72
2022-11-16T06:51:46.695Z,85.22
2022-11-16T06:57:00.419Z,83.98
2022-11-16T06:59:28.612Z,82.41
2022-11-16T07:01:56.935Z,82.25
2022-11-16T07:04:25.226Z,82.32
2022-11-16T07:06:55.061Z,83.19
2022-11-16T07:09:23.300Z,82.07
2022-11-16T07:11:51.563Z,81.94
2022-11-16T07:14:20.494Z,81.85
2022-11-16T07:16:48.711Z,82.04
2022-11-16T07:19:17.409Z,82.32
2022-11-16T07:21:45.687Z,82.21
2022-11-16T07:24:18.679Z,81.67
2022-11-16T07:26:46.997Z,83.31
2022-11-16T07:29:15.778Z,84.19
2022-11-16T07:31:44.069Z,86.30
2022-11-16T07:34:15.432Z,84.76
2022-11-16T07:36:43.938Z,83.97
2022-11-16T07:39:12.134Z,83.91
2022-11-16T07:41:44.428Z,85.55
2022-11-16T07:44:12.671Z,87.85
2022-11-16T07:46:48.799Z,88.73
2022-11-16T07:49:19.657Z,85.36
2022-11-16T07:51:47.909Z,83.46
2022-11-16T07:54:17.060Z,84.12
2022-11-16T07:56:46.665Z,84.62
2022-11-16T07:59:14.901Z,84.37
2022-11-16T08:01:43.157Z,84.14
2022-11-16T08:04:11.360Z,83.12
2022-11-16T08:06:39.570Z,79.80
2022-11-16T08:09:07.789Z,80.76
2022-11-16T08:11:36.012Z,78.58
2022-11-16T08:14:05.719Z,76.51
2022-11-16T08:16:34.284Z,73.84
2022-11-16T08:19:02.531Z,72.57
2022-11-16T08:21:30.774Z,71.66
2022-11-16T08:23:59.243Z,70.62
2022-11-16T08:26:28.317Z,69.52
2022-11-16T08:28:56.743Z,69.86
2022-11-16T08:31:28.016Z,70.68
2022-11-16T08:33:56.879Z,70.72
2022-11-16T08:36:25.232Z,68.13
2022-11-16T08:38:54.097Z,67.30
2022-11-16T08:41:22.851Z,65.92
2022-11-16T08:43:53.529Z,63.67
2022-11-16T08:46:22.261Z,61.02
2022-11-16T08:48:57.056Z,57.23
2022-11-16T08:54:12.357Z,56.04
2022-11-16T08:56:40.616Z,55.30
2022-11-16T08:59:08.835Z,55.05
2022-11-16T09:01:37.099Z,53.28
2022-11-16T09:04:07.046Z,51.48
2022-11-16T09:06:37.335Z,52.37
2022-11-16T09:09:06.041Z,50.59
2022-11-16T09:11:34.525Z,50.25
2022-11-16T09:16:48.366Z,47.59
2022-11-16T09:19:17.935Z,47.62
2022-11-16T09:21:46.671Z,45.91
2022-11-16T09:24:14.978Z,44.56
2022-11-16T09:26:43.210Z,44.73
2022-11-16T09:29:14.286Z,44.87
2022-11-16T09:31:42.754Z,45.09
2022-11-16T09:34:11.125Z,44.72
2022-11-16T09:36:40.814Z,43.40
2022-11-16T09:42:08.608Z,44.13
2022-11-16T09:44:59.495Z,44.56
2022-11-16T09:47:39.794Z,43.06
2022-11-16T09:50:16.583Z,43.16
2022-11-16T09:52:50.686Z,44.79
2022-11-16T09:55:25.874Z,43.40
2022-11-16T09:57:58.700Z,42.16
2022-11-16T10:00:27.010Z,40.19
2022-11-16T10:03:03.338Z,38.85
2022-11-16T10:05:38.675Z,39.41
2022-11-16T10:08:16.031Z,41.47
2022-11-16T10:10:52.370Z,42.34
2022-11-16T10:13:29.430Z,41.07
2022-11-16T10:16:06.402Z,41.16
2022-11-16T10:18:47.943Z,40.94
2022-11-16T10:21:37.436Z,41.17
2022-11-16T10:24:26.289Z,40.61
2022-11-16T10:27:08.866Z,39.83
2022-11-16T10:29:49.424Z,39.52
2022-11-16T10:32:26.112Z,39.80
2022-11-16T10:34:56.064Z,39.45
2022-11-16T10:37:31.627Z,40.43
2022-11-16T10:40:03.722Z,39.13
2022-11-16T10:42:39.342Z,40.20
2022-11-16T10:45:16.787Z,39.51
2022-11-16T10:47:51.331Z,37.41
2022-11-16T10:50:33.073Z,39.61
2022-11-16T10:53:01.996Z,40.96
2022-11-16T10:55:31.888Z,40.78
2022-11-16T10:58:02.012Z,39.55
2022-11-16T11:00:39.601Z,41.16
2022-11-16T11:03:10.831Z,41.15
2022-11-16T11:05:49.262Z,40.52
2022-11-16T11:08:27.496Z,41.57
2022-11-16T11:11:22.804Z,41.66
2022-11-16T11:14:05.273Z,40.42
2022-11-16T11:16:33.462Z,37.95
2022-11-16T11:19:20.386Z,38.76
2022-11-16T11:21:49.295Z,38.81
2022-11-16T11:27:08.945Z,39.48
2022-11-16T11:29:38.967Z,39.77
2022-11-16T11:32:16.887Z,40.72
2022-11-16T11:34:50.830Z,44.61
2022-11-16T11:37:22.999Z,44.10
2022-11-16T11:40:06.704Z,43.68
2022-11-16T11:42:36.711Z,43.03
2022-11-16T11:45:09.395Z,41.80
2022-11-16T11:47:58.689Z,41.92
2022-11-16T11:50:38.085Z,43.30
2022-11-16T11:53:09.550Z,44.09
2022-11-16T11:55:37.873Z,45.07
2022-11-16T11:58:12.676Z,44.40
2022-11-16T12:01:05.828Z,43.66
2022-11-16T12:03:52.359Z,43.69
2022-11-16T12:06:29.100Z,43.22
2022-11-16T12:09:09.869Z,45.56
2022-11-16T12:11:50.647Z,46.36
2022-11-16T12:14:34.189Z,47.70
2022-11-16T12:17:08.635Z,47.38
2022-11-16T12:19:56.448Z,49.85
2022-11-16T12:22:42.287Z,49.65
2022-11-16T12:25:22.550Z,48.02
2022-11-16T12:28:05.664Z,49.17
2022-11-16T12:30:45.196Z,50.09
2022-11-16T12:33:26.023Z,50.92
2022-11-16T12:36:02.535Z,52.14
2022-11-16T12:38:59.812Z,51.78
2022-11-16T12:41:48.200Z,52.49
2022-11-16T12:44:23.560Z,52.52
2022-11-16T12:47:05.697Z,53.15
2022-11-16T12:49:57.632Z,52.06
2022-11-16T12:52:43.640Z,50.85
2022-11-16T12:55:27.130Z,50.16
2022-11-16T12:58:15.725Z,51.17
2022-11-16T13:00:59.774Z,49.93
2022-11-16T13:03:35.378Z,49.31
2022-11-16T13:06:08.251Z,47.67
2022-11-16T13:08:48.344Z,46.95
2022-11-16T13:11:21.943Z,48.99
2022-11-16T13:13:54.044Z,49.37
2022-11-16T13:16:24.128Z,50.39
2022-11-16T13:18:55.649Z,50.49
2022-11-16T13:21:41.071Z,49.78
2022-11-16T13:24:28.512Z,49.32
2022-11-16T13:27:02.731Z,51.56
2022-11-16T13:29:38.387Z,50.20
2022-11-16T13:32:14.913Z,49.35
2022-11-16T13:34:45.423Z,50.46
2022-11-16T13:37:48.231Z,49.26
2022-11-16T13:40:28.397Z,50.98
2022-11-16T13:43:04.802Z,52.51
2022-11-16T13:45:36.309Z,52.38
2022-11-16T13:48:18.159Z,51.77
2022-11-16T13:50:52.949Z,52.22
2022-11-16T13:56:17.053Z,51.24
2022-11-16T13:58:47.653Z,50.33
2022-11-16T14:01:16.972Z,49.86
2022-11-16T14:03:48.423Z,50.25
2022-11-16T14:06:53.483Z,49.46
2022-11-16T14:09:45.582Z,49.52
2022-11-16T14:12:51.603Z,49.40
2022-11-16T14:15:22.092Z,50.10
2022-11-16T14:17:54.846Z,49.90
2022-11-16T14:20:34.674Z,50.98
2022-11-16T14:23:17.564Z,51.31
2022-11-16T14:25:56.821Z,52.05
2022-11-16T14:28:39.532Z,52.66
2022-11-16T14:31:17.137Z,53.29
2022-11-16T14:33:52.210Z,53.54
2022-11-16T14:36:37.978Z,53.18
2022-11-16T14:39:24.904Z,53.50
2022-11-16T14:41:55.466Z,52.97
2022-11-16T14:44:27.874Z,53.25
2022-11-16T14:46:57.214Z,53.55
2022-11-16T14:49:28.365Z,54.99
2022-11-16T14:52:00.253Z,54.03
2022-11-16T14:54:35.120Z,54.07
2022-11-16T14:57:06.890Z,53.69
2022-11-16T14:59:35.104Z,55.45
2022-11-16T15:02:20.583Z,55.27
2022-11-16T15:04:49.911Z,55.48
2022-11-16T15:07:20.527Z,57.17
2022-11-16T15:09:51.577Z,57.16
2022-11-16T15:12:42.592Z,57.70
2022-11-16T15:15:17.105Z,57.34
2022-11-16T15:17:47.022Z,56.55
2022-11-16T15:20:20.953Z,58.84
2022-11-16T15:22:52.215Z,58.25
2022-11-16T15:25:29.426Z,59.43
2022-11-16T15:28:01.927Z,58.64
2022-11-16T15:30:33.163Z,59.16
2022-11-16T15:33:03.814Z,60.92
2022-11-16T15:35:33.959Z,61.82
2022-11-16T15:38:07.275Z,62.42
2022-11-16T15:40:36.511Z,63.76
2022-11-16T15:43:07.789Z,62.90
2022-11-16T15:45:37.768Z,63.62
2022-11-16T15:48:07.133Z,64.56
2022-11-16T15:50:35.447Z,64.48
2022-11-16T15:53:03.734Z,65.81
2022-11-16T15:55:35.537Z,67.67
2022-11-16T15:58:15.314Z,65.59
2022-11-16T16:00:48.448Z,66.38
2022-11-16T16:03:23.043Z,68.36
2022-11-16T16:05:51.966Z,68.65
2022-11-16T16:08:28.308Z,69.18
2022-11-16T16:11:27.666Z,69.97
2022-11-16T16:14:01.795Z,69.20
2022-11-16T16:16:32.619Z,71.58
2022-11-16T16:19:09.291Z,72.73
2022-11-16T16:21:45.888Z,72.73
2022-11-16T16:24:36.188Z,71.83
2022-11-16T16:27:11.705Z,72.08
2022-11-16T16:29:41.419Z,70.95
2022-11-16T16:32:17.321Z,70.31
2022-11-16T16:34:45.549Z,69.31
2022-11-16T16:37:14.053Z,70.93
2022-11-16T16:39:42.304Z,70.17
2022-11-16T16:42:13.212Z,71.39
2022-11-16T16:44:43.375Z,71.44
2022-11-16T16:47:11.903Z,73.72
2022-11-16T16:49:40.298Z,75.85
2022-11-16T16:52:09.691Z,73.84
2022-11-16T16:54:37.927Z,73.03
2022-11-16T16:57:06.257Z,72.35
2022-11-16T16:59:34.536Z,72.34
2022-11-16T17:02:04.331Z,74.03
2022-11-16T17:04:34.148Z,74.92
2022-11-16T17:07:02.399Z,73.79
2022-11-16T17:09:30.951Z,72.85
2022-11-16T17:11:59.239Z,71.91
2022-11-16T17:14:27.639Z,71.75
2022-11-16T17:16:55.872Z,73.83
2022-11-16T17:19:25.579Z,74.36
2022-11-16T17:21:54.202Z,73.27
2022-11-16T17:24:22.735Z,74.00
2022-11-16T17:26:51.019Z,76.01
2022-11-16T17:29:19.384Z,74.58
2022-11-16T17:31:48.420Z,76.01
2022-11-16T17:34:16.652Z,76.55
2022-11-16T17:36:46.314Z,76.45
2022-11-16T17:39:16.019Z,77.00
2022-11-16T17:41:44.399Z,77.28
2022-11-16T17:44:17.173Z,76.38
2022-11-16T17:46:48.532Z,76.13
2022-11-16T17:49:16.828Z,77.07
2022-11-16T17:51:48.748Z,75.50
2022-11-16T17:54:17.080Z,77.63
2022-11-16T17:56:45.332Z,78.81
2022-11-16T17:59:13.591Z,78.46
2022-11-16T18:01:41.977Z,79.16
2022-11-16T18:04:10.332Z,81.05
2022-11-16T18:06:39.548Z,80.17
2022-11-16T18:09:09.270Z,79.89
2022-11-16T18:11:40.004Z,79.92
2022-11-16T18:14:11.557Z,79.48
2022-11-16T18:16:41.173Z,79.03
2022-11-16T18:19:10.007Z,78.13
2022-11-16T18:21:41.100Z,79.62
2022-11-16T18:24:11.449Z,81.79
2022-11-16T18:26:40.459Z,81.61
2022-11-16T18:29:12.543Z,83.27
2022-11-16T18:31:41.356Z,82.34
2022-11-16T18:34:20.528Z,80.44
2022-11-16T18:36:51.252Z,79.28
2022-11-16T18:39:24.268Z,77.54
2022-11-16T18:41:56.427Z,76.72
2022-11-16T18:44:25.256Z,76.24
2022-11-16T18:46:53.645Z,75.75
2022-11-16T18:49:25.773Z,75.69
2022-11-16T18:51:54.010Z,76.54
2022-11-16T18:54:27.044Z,76.21
2022-11-16T18:56:56.982Z,75.54
2022-11-16T18:59:27.511Z,75.11
2022-11-16T19:01:56.441Z,75.18
2022-11-16T19:04:27.287Z,75.07
2022-11-16T19:06:56.163Z,75.71
2022-11-16T19:09:26.545Z,75.28
2022-11-16T19:11:55.046Z,76.05
2022-11-16T19:14:23.340Z,76.47
2022-11-16T19:16:56.867Z,78.00
2022-11-16T19:19:27.839Z,77.08
2022-11-16T19:21:58.752Z,76.01
2022-11-16T19:24:29.003Z,74.97
2022-11-16T19:26:57.658Z,74.45
2022-11-16T19:29:26.174Z,75.27
2022-11-16T19:31:54.518Z,75.67
2022-11-16T19:34:22.765Z,75.63
2022-11-16T19:36:51.540Z,75.58
2022-11-16T19:39:19.912Z,75.27
2022-11-16T19:41:49.716Z,76.23
2022-11-16T19:44:18.242Z,76.68
2022-11-16T19:46:46.527Z,77.81
2022-11-16T19:49:20.221Z,76.94
2022-11-16T19:51:49.539Z,77.59
2022-11-16T19:54:17.833Z,79.23
2022-11-16T19:56:49.318Z,80.37
2022-11-16T19:59:21.695Z,84.42
2022-11-16T20:01:50.030Z,86.67
2022-11-16T20:04:18.267Z,83.88
2022-11-16T20:06:46.555Z,83.92
2022-11-16T20:09:14.804Z,87.99
2022-11-16T20:11:43.385Z,86.04
2022-11-16T20:14:13.981Z,83.00
2022-11-16T20:16:50.452Z,82.96
2022-11-16T20:19:20.609Z,84.70
2022-11-16T20:21:48.912Z,83.63
2022-11-16T20:24:19.075Z,82.23
2022-11-16T20:26:49.091Z,82.15
2022-11-16T20:29:19.244Z,82.49
2022-11-16T20:31:49.035Z,85.87
2022-11-16T20:34:20.432Z,83.38
2022-11-16T20:36:50.936Z,83.71
2022-11-16T20:39:20.841Z,87.58
2022-11-16T20:41:49.764Z,95.15
2022-11-16T20:44:22.181Z,98.42
2022-11-16T20:46:52.928Z,99.09
2022-11-16T20:49:21.439Z,92.14
2022-11-16T20:51:51.179Z,89.01
2022-11-16T20:54:19.440Z,87.92
2022-11-16T20:56:48.312Z,86.50
2022-11-16T20:59:16.565Z,85.92
2022-11-16T21:01:47.875Z,84.98
2022-11-16T21:04:17.771Z,84.86
2022-11-16T21:06:45.935Z,87.53
2022-11-16T21:09:16.018Z,92.04
2022-11-16T21:12:01.738Z,90.89
2022-11-16T21:14:30.077Z,91.43
2022-11-16T21:16:58.304Z,89.96
2022-11-16T21:19:27.912Z,88.88
2022-11-16T21:21:56.061Z,87.82
2022-11-16T21:24:24.938Z,86.89
2022-11-16T21:26:53.480Z,85.33
2022-11-16T21:29:26.030Z,85.97
2022-11-16T21:31:54.341Z,87.88
2022-11-16T21:34:24.501Z,87.31
2022-11-16T21:36:54.108Z,87.82
2022-11-16T21:39:22.480Z,89.69
2022-11-16T21:41:50.689Z,94.03
2022-11-16T21:44:18.854Z,97.45
2022-11-16T21:46:47.081Z,96.15
2022-11-16T21:49:15.368Z,95.89
2022-11-16T21:51:43.621Z,96.71
2022-11-16T21:54:13.952Z,97.63
2022-11-16T21:56:42.237Z,100.00
2022-11-16T21:59:10.478Z,100.00
2022-11-16T22:01:52.482Z,100.00
2022-11-16T22:04:38.011Z,100.00
2022-11-16T22:07:23.613Z,100.00
2022-11-16T22:09:53.213Z,100.00
2022-11-16T22:12:21.442Z,100.00
2022-11-16T22:14:49.708Z,100.00
2022-11-16T22:17:17.936Z,100.00
2022-11-16T22:19:46.140Z,100.00
2022-11-16T22:22:14.687Z,100.00
2022-11-16T22:24:43.022Z,100.00
2022-11-16T22:27:12.755Z,100.00
2022-11-16T22:29:41.010Z,100.00
2022-11-16T22:32:09.333Z,100.00
2022-11-16T22:34:37.894Z,100.00
2022-11-16T22:37:06.190Z,100.00
2022-11-16T22:39:34.805Z,100.00
2022-11-16T22:42:02.994Z,100.00
2022-11-16T22:44:32.709Z,100.00
2022-11-16T22:47:00.885Z,100.00
2022-11-16T22:49:29.084Z,100.00
2022-11-16T22:51:57.391Z,100.00
2022-11-16T22:54:28.598Z,100.00
2022-11-16T22:56:57.215Z,100.00
2022-11-16T22:59:45.548Z,100.00
2022-11-16T23:02:13.825Z,100.00
2022-11-16T23:04:42.091Z,100.00
2022-11-16T23:07:10.334Z,100.00
2022-11-16T23:09:38.643Z,100.00
2022-11-16T23:12:24.509Z,100.00
2022-11-16T23:15:11.508Z,100.00
2022-11-16T23:17:39.765Z,100.00
2022-11-16T23:20:26.916Z,100.00
2022-11-16T23:23:12.364Z,100.00
2022-11-16T23:25:58.275Z,100.00
2022-11-16T23:28:26.963Z,100.00
2022-11-16T23:30:56.564Z,100.00
2022-11-16T23:33:43.997Z,100.00
2022-11-16T23:36:12.438Z,100.00
2022-11-16T23:38:40.910Z,100.00
2022-11-16T23:41:26.815Z,100.00
2022-11-16T23:44:00.832Z,100.00
2022-11-16T23:46:32.539Z,100.00
2022-11-16T23:49:01.626Z,100.00
2022-11-16T23:51:29.852Z,100.00
2022-11-16T23:53:58.255Z,100.00
2022-11-16T23:56:26.494Z,100.00
2022-11-16T23:58:57.164Z,100.00
